METAR stanice u blizini

 

LYBE - Beograd / Surčin, Srbija
Ažurirano: 18/04/2021 13:30
Mostly Cloudy
Mostly Cloudy
 Pravac vetra JJZ
Vetar: JJZ 9 km/h
Temperatura: 7°C
Osećaj hladnoće: 6°C
Tačka rose: 4°C
Vlažnost: 81%
Pritisak: 1016 hPa
Oblaci: Mostly Cloudy
Vidljivost: 10 km
Cloud details: Partly Cloudy 366 m
Mostly Cloudy 914 m
2021/04/18 11:30 LYBE 181130Z 20005KT 160V240 9999 SCT012 BKN030 07/04 Q1016 NOSIG
LYBT - Beograd / Batajnica, Srbija
Ažurirano: 18/04/2021 13:30
Slaba kiša, Pretežno oblačno
Slaba kiša, Pretežno oblačno
 Pravac vetra J
Vetar: J 6 km/h
Temperatura: 6°C
Tačka rose: 6°C
Vlažnost: 100%
Pritisak: 1016 hPa
Pregled: Light Rain
Oblaci: Mostly Cloudy
Vidljivost: 10 km
Cloud details: Mostly Cloudy 457 m
2021/04/18 11:30 LYBT 181130Z 19003KT 150V240 9999 -RA BKN015 06/06 Q1016 NOSIG
LYVR - Vršac, Srbija
Ažurirano: 18/04/2021 13:30
Slaba kiša, Pretežno oblačno
Slaba kiša, Pretežno oblačno
 Pravac vetra J
Vetar: J 11 km/h
Temperatura: 8°C
Osećaj hladnoće: 6°C
Tačka rose: 6°C
Vlažnost: 87%
Pritisak: 1016 hPa
Pregled: Light Rain
Oblaci: Mostly Cloudy
Vidljivost: 10 km
Cloud details: Mostly Cloudy 488 m
2021/04/18 11:30 LYVR 181130Z 17006KT 140V200 9999 -RA BKN016 08/06 Q1016
 
LYKV - Lađevci, Srbija
Ažurirano: 18/04/2021 13:30
Mostly Cloudy
Mostly Cloudy
 Pravac vetra varies
Vetar: varies 7 km/h
Temperatura: 10°C
Osećaj hladnoće: 9°C
Tačka rose: 5°C
Vlažnost: 71%
Pritisak: 1015 hPa
Oblaci: Mostly Cloudy
Vidljivost: 10 km
Cloud details: Mostly Cloudy 853 m
2021/04/18 11:30 LYKV 181130Z VRB04KT 9999 BKN028 10/05 Q1015 NOSIG
LYNI - Niš, Srbija
Ažurirano: 18/04/2021 13:30
Mostly Cloudy
Mostly Cloudy
 Pravac vetra SZ
Vetar: SZ 9 km/h
Temperatura: 6°C
Osećaj hladnoće: 4°C
Tačka rose: 4°C
Vlažnost: 87%
Pritisak: 1016 hPa
Oblaci: Mostly Cloudy
Vidljivost: 10 km
Cloud details: Few Clouds 305 m
Partly Cloudy 518 m
Mostly Cloudy 823 m
2021/04/18 11:30 LYNI 181130Z 31005KT 280V340 9999 FEW010 SCT017 BKN027 06/04 Q1016 NOSIG
BKPR - Priština, Srbija
Ažurirano: 18/04/2021 14:00
Partly Cloudy
Partly Cloudy
 Pravac vetra Z
Vetar: Z 13 km/h
Temperatura: 10°C
Osećaj hladnoće: 8°C
Tačka rose: 3°C
Vlažnost: 62%
Pritisak: 1014 hPa
Oblaci: Partly Cloudy
Vidljivost: 10 km
Cloud details: Few Clouds 762 m
Partly Cloudy 1524 m
2021/04/18 12:00 BKPR 181200Z 27007KT 9999 FEW025 SCT050 10/03 Q1014 NOSIG
 
LHPP - Pecs / Pogany, Hungary
Ažurirano: 18/04/2021 13:15
Slaba kiša, Pretežno oblačno
Slaba kiša, Pretežno oblačno
 Pravac vetra SI
Vetar: SI 11 km/h
Temperatura: 7°C
Osećaj hladnoće: 5°C
Tačka rose: 5°C
Vlažnost: 87%
Pritisak: 1015 hPa
Pregled: Light Rain
Oblaci: Mostly Cloudy
Vidljivost: 10 km
Cloud details: Partly Cloudy 488 m
Mostly Cloudy 792 m
2021/04/18 11:15 LHPP 181115Z 04006KT 9999 -RA SCT016 BKN026 07/05 Q1015
LHUD - Szeged, Hungary
Ažurirano: 04/07/2019 01:45
NOT Current
Vedro
Vedro
 Pravac vetra S
Vetar: S 7 km/h
Temperatura: 18°C
Tačka rose: 13°C
Vlažnost: 73%
Pritisak: 1019 hPa
Pregled: Vedro
Vidljivost: greater than 10 km
2019/07/03 23:45 LHUD 032345Z 35004KT CAVOK 18/13 Q1019
LRTR - Timisoara, Romania
Ažurirano: 18/04/2021 13:30
Slaba kiša, Delimično oblačno
Slaba kiša, Delimično oblačno
 Pravac vetra varies
Vetar: varies 2 km/h
Temperatura: 9°C
Tačka rose: 8°C
Vlažnost: 94%
Pritisak: 1016 hPa
Pregled: Light Rain
Oblaci: Partly Cloudy
Vidljivost: 10 km
Cloud details: Few Clouds 366 m
Partly Cloudy 1219 m
2021/04/18 11:30 LRTR 181130Z VRB01KT 9999 -RA FEW012 SCT040 09/08 Q1016 R11/290095
 
LRCV - Craiova, Romania
Ažurirano: 18/04/2021 13:30
Slaba kiša, Pretežno oblačno
Slaba kiša, Pretežno oblačno
 Pravac vetra I
Vetar: I 22 km/h
Temperatura: 7°C
Osećaj hladnoće: 4°C
Tačka rose: 3°C
Vlažnost: 76%
Pritisak: 1016 hPa
Pregled: Light Rain
Oblaci: Mostly Cloudy
Vidljivost: 10 km
Cloud details: Mostly Cloudy 762 m
Mostly Cloudy 1219 m
2021/04/18 11:30 LRCV 181130Z 08012KT 9999 -RA BKN025 BKN040 07/03 Q1016 R09/29//95
LBSF - Sofia, Bulgaria
Ažurirano: 18/04/2021 13:30
Mostly Cloudy
Mostly Cloudy
 Pravac vetra ZSZ
Vetar: ZSZ 11 km/h
Temperatura: 9°C
Osećaj hladnoće: 7°C
Tačka rose: 5°C
Vlažnost: 76%
Pritisak: 1013 hPa
Oblaci: Mostly Cloudy
Vidljivost: 7 km
Cloud details: Few Clouds 610 m
Partly Cloudy 884 m
Mostly Cloudy 1219 m
2021/04/18 11:30 LBSF 181130Z 29006KT 260V340 7000 FEW020 SCT029 BKN040 09/05 Q1013 NOSIG
LWSK - Skoplje, Makedonija
Ažurirano: 18/04/2021 13:30
Oblačno
Oblačno
 Pravac vetra SSI
Vetar: SSI 11 km/h
Temperatura: 10°C
Osećaj hladnoće: 8°C
Tačka rose: 6°C
Vlažnost: 76%
Pritisak: 1015 hPa
Oblaci: Oblačno
Vidljivost: 10 km
Cloud details: Partly Cloudy 610 m
Oblačno 1219 m
2021/04/18 11:30 LWSK 181130Z 03006KT 350V060 9999 SCT020 OVC040 10/06 Q1015 NOSIG
 
LYPG - Podgorica, Crna Gora
Ažurirano: 18/04/2021 13:30
Partly Cloudy
Partly Cloudy
 Pravac vetra J
Vetar: J 6 km/h
Temperatura: 15°C
Tačka rose: 6°C
Vlažnost: 55%
Pritisak: 1015 hPa
Oblaci: Partly Cloudy
Vidljivost: 10 km
Cloud details: Few Clouds 823 m
Partly Cloudy 1006 m
2021/04/18 11:30 LYPG 181130Z 17003KT 110V250 9999 FEW027 SCT033 15/06 Q1015 NOSIG
LQSA - Sarajevo, Bosna i Hercegovina
Ažurirano: 18/04/2021 13:30
Mostly Cloudy
Mostly Cloudy
 Pravac vetra J
Vetar: J 7 km/h
Temperatura: 6°C
Osećaj hladnoće: 4°C
Tačka rose: 1°C
Vlažnost: 71%
Pritisak: 1014 hPa
Oblaci: Mostly Cloudy
Vidljivost: 10 km
Cloud details: Few Clouds 610 m
Mostly Cloudy 1067 m
2021/04/18 11:30 LQSA 181130Z 17004KT 140V230 9999 FEW020 BKN035 06/01 Q1014 NOSIG
LDOS - Osijek, Hrvatksa
Ažurirano: 18/04/2021 13:30
Slaba kiša, Oblačno
Slaba kiša, Oblačno
 Pravac vetra varies
Vetar: varies 4 km/h
Temperatura: 8°C
Tačka rose: 6°C
Vlažnost: 87%
Pritisak: 1016 hPa
Pregled: Light Rain
Oblaci: Oblačno
Vidljivost: 8 km
Cloud details: Mostly Cloudy 396 m
Oblačno 914 m
2021/04/18 11:30 LDOS 181130Z VRB02KT 8000 -RA BKN013 OVC030 08/06 Q1016